Time;durP1;ratioP1;P1;durP2;ratioP2;P2;SDS_P1;SDS_P2;PMS_P1;PMS_P2;Temp;Humidity;BMP_temperature;BMP_pressure;BME280_temperature;BME280_humidity;BME280_pressure;Samples;Min_cycle;Max_cycle;Signal;HPM_P1;HPM_P2
2022/07/18 00:01:58;;;;;;;4.40;1.20;;;21.50;92.60;;;21.97;44.40;101980.97;4880988;28;98053;-51
2022/07/18 00:04:24;;;;;;;4.03;1.87;;;21.50;92.60;;;21.97;44.75;101980.97;4863026;28;98899;-49
2022/07/18 00:06:51;;;;;;;5.53;1.47;;;21.50;92.30;;;21.98;45.12;101980.88;4876372;28;102408;-55
2022/07/18 00:09:17;;;;;;;3.33;1.40;;;21.50;92.60;;;21.96;45.71;101987.31;4880310;28;97190;-51
2022/07/18 00:11:44;;;;;;;1.83;1.20;;;21.50;92.70;;;21.94;43.97;101983.84;4872351;28;97272;-57
2022/07/18 00:14:11;;;;;;;4.97;1.40;;;21.40;92.40;;;21.95;45.30;101980.22;4879114;28;97154;-53
2022/07/18 00:16:37;;;;;;;4.20;1.77;;;21.40;92.70;;;21.92;44.69;101985.78;4876345;28;98279;-56
2022/07/18 00:19:03;;;;;;;5.77;1.60;;;21.40;92.80;;;21.90;44.69;101987.69;4879931;28;98368;-56
2022/07/18 00:21:29;;;;;;;3.53;1.40;;;21.40;92.70;;;21.89;45.64;101983.28;4875202;28;98267;-55
2022/07/18 00:23:55;;;;;;;5.27;1.50;;;21.40;93.00;;;21.85;44.42;101974.56;4880569;28;100658;-51
2022/07/18 00:26:21;;;;;;;4.03;1.30;;;21.30;93.00;;;21.85;45.35;101981.75;4879359;28;98724;-57
2022/07/18 00:28:47;;;;;;;2.70;1.30;;;21.30;93.00;;;21.83;45.74;101980.97;4877909;28;98132;-54
2022/07/18 00:31:13;;;;;;;2.87;1.53;;;21.30;93.00;;;21.81;45.41;101982.88;4878165;28;97601;-55
2022/07/18 00:33:39;;;;;;;2.70;1.40;;;21.30;93.20;;;21.80;45.25;101989.22;4874390;28;97352;-57
2022/07/18 00:36:05;;;;;;;3.20;1.20;;;21.30;93.30;;;21.77;45.81;101982.22;4878334;28;106380;-57
2022/07/18 00:38:31;;;;;;;8.60;1.47;;;21.20;93.30;;;21.76;45.48;101979.63;4885407;28;97515;-54
2022/07/18 00:40:57;;;;;;;4.47;1.80;;;21.20;93.50;;;21.74;45.13;101981.56;4889853;28;97306;-51
2022/07/18 00:43:23;;;;;;;5.53;1.40;;;21.20;93.40;;;21.71;46.05;101976.38;4893413;28;97901;-55
2022/07/18 00:45:49;;;;;;;3.63;1.63;;;21.10;93.60;;;21.66;45.84;101988.25;4889373;28;113276;-55
2022/07/18 00:48:16;;;;;;;2.87;1.17;;;21.10;93.50;;;21.66;45.44;101984.69;4899138;28;97008;-54
2022/07/18 00:50:43;;;;;;;2.53;1.43;;;21.10;93.80;;;21.62;45.16;101989.41;4893285;28;97256;-52
2022/07/18 00:53:10;;;;;;;3.07;1.40;;;21.00;93.80;;;21.59;45.55;101989.59;4887986;28;97384;-55
2022/07/18 00:55:43;;;;;;;2.33;1.60;;;21.00;93.70;;;21.54;45.24;101983.63;4891866;28;97668;-54
2022/07/18 00:58:11;;;;;;;3.33;1.43;;;21.00;93.60;;;21.49;44.56;101976.81;4900412;28;97032;-52
2022/07/18 01:03:23;;;;;;;3.93;1.70;;;20.90;93.90;;;21.44;46.65;101966.38;4898354;28;97540;-54
2022/07/18 01:05:49;;;;;;;2.77;1.93;;;20.80;94.30;;;21.44;46.69;101968.19;4909830;28;101169;-55
2022/07/18 01:08:15;;;;;;;3.20;1.63;;;20.80;94.20;;;21.44;46.88;101963.69;4897777;28;96998;-54
2022/07/18 01:10:42;;;;;;;4.43;1.90;;;20.80;94.20;;;21.43;46.69;101961.97;4894649;28;97199;-50
2022/07/18 01:13:08;;;;;;;4.87;1.90;;;20.80;94.40;;;21.41;46.72;101969.25;4904327;28;97816;-56
2022/07/18 01:15:36;;;;;;;4.27;1.67;;;20.80;94.10;;;21.39;46.68;101960.41;4892905;28;103036;-56
2022/07/18 01:18:02;;;;;;;2.93;1.30;;;20.80;94.20;;;21.38;46.62;101953.31;4895698;28;98116;-55
2022/07/18 01:20:31;;;;;;;5.03;1.83;;;20.70;94.30;;;21.35;46.83;101957.03;4896064;28;97083;-55
2022/07/18 01:22:58;;;;;;;2.73;1.67;;;20.70;94.40;;;21.33;45.82;101956.28;4918525;28;97633;-50
2022/07/18 01:25:25;;;;;;;3.00;1.43;;;20.70;94.20;;;21.31;47.55;101951.97;4904110;28;98332;-56
2022/07/18 01:27:51;;;;;;;3.63;1.50;;;20.70;94.30;;;21.30;46.56;101955.59;4899950;28;96813;-48
2022/07/18 01:30:16;;;;;;;3.50;1.67;;;20.70;94.30;;;21.27;46.61;101956.66;4906143;28;97422;-50
2022/07/18 01:32:43;;;;;;;3.80;1.70;;;20.60;94.20;;;21.27;47.11;101950.44;4898409;28;97152;-51
2022/07/18 01:35:10;;;;;;;2.43;1.33;;;20.60;94.30;;;21.27;46.80;101955.78;4897407;28;97572;-49
2022/07/18 01:37:36;;;;;;;2.60;1.47;;;20.60;94.40;;;21.25;46.36;101960.34;4899714;28;96622;-55
2022/07/18 01:40:07;;;;;;;2.50;1.60;;;20.60;94.20;;;21.24;47.18;101963.97;4907376;28;96796;-52
2022/07/18 01:42:33;;;;;;;2.97;1.70;;;20.60;94.40;;;21.25;47.32;101963.03;4893361;28;98297;-56
2022/07/18 01:44:58;;;;;;;4.03;1.60;;;20.60;94.70;;;21.26;47.46;101954.91;4895836;28;97186;-55
2022/07/18 01:47:24;;;;;;;2.60;1.50;;;20.60;94.40;;;21.21;46.28;101951.59;4895984;28;103673;-59
2022/07/18 01:49:50;;;;;;;2.97;1.60;;;20.60;94.40;;;21.21;47.47;101959.66;4886490;28;97075;-55
2022/07/18 01:52:16;;;;;;;6.23;2.00;;;20.60;94.30;;;21.23;47.03;101959.56;4887363;28;97324;-55
2022/07/18 01:54:42;;;;;;;4.23;1.83;;;20.60;94.20;;;21.26;46.30;101967.44;4893520;28;96693;-50
2022/07/18 01:57:08;;;;;;;4.57;1.80;;;20.60;93.80;;;21.23;45.49;101964.94;4900322;28;96753;-52
2022/07/18 01:59:35;;;;;;;3.20;1.40;;;20.60;93.90;;;21.21;46.72;101970.38;4889653;28;97497;-55
2022/07/18 02:02:04;;;;;;;2.57;1.47;;;20.60;94.20;;;21.21;47.29;101964.16;4905645;28;98620;-52
2022/07/18 02:07:14;;;;;;;4.90;1.77;;;20.50;94.40;;;21.21;48.16;101959.66;4889354;28;96644;-51
2022/07/18 02:09:39;;;;;;;2.67;1.30;;;20.60;94.60;;;21.21;47.38;101964.16;4891737;28;96905;-52
2022/07/18 02:12:05;;;;;;;7.17;2.13;;;20.60;94.30;;;21.22;47.49;101963.19;4904455;28;96967;-56
2022/07/18 02:14:31;;;;;;;3.30;1.53;;;20.50;94.50;;;21.23;47.31;101959.56;4886789;28;98320;-54
2022/07/18 02:16:57;;;;;;;1.67;1.20;;;20.60;94.00;;;21.23;47.46;101959.56;4888687;28;96761;-51
2022/07/18 02:19:23;;;;;;;2.63;1.30;;;20.60;94.90;;;21.21;46.81;101966.84;4884457;28;97024;-55
2022/07/18 02:21:48;;;;;;;3.70;1.87;;;20.50;94.50;;;21.23;47.70;101959.56;4893829;28;97594;-51
2022/07/18 02:24:14;;;;;;;3.77;1.77;;;20.60;94.40;;;21.23;47.11;101959.56;4890409;28;102092;-54
2022/07/18 02:26:40;;;;;;;1.73;1.23;;;20.60;94.20;;;21.21;45.40;101956.09;4894493;28;97065;-52
2022/07/18 02:29:06;;;;;;;2.77;1.50;;;20.60;94.10;;;21.23;46.43;101954.19;4883738;28;96969;-53
2022/07/18 02:31:32;;;;;;;3.87;1.60;;;20.60;94.10;;;21.21;45.62;101950.75;4894649;28;97653;-50
2022/07/18 02:33:57;;;;;;;2.30;1.40;;;20.50;94.40;;;21.15;46.06;101945.75;4889284;28;100856;-51
2022/07/18 02:36:23;;;;;;;3.97;1.97;;;20.50;94.40;;;21.10;46.49;101940.63;4902441;28;103368;-51
2022/07/18 02:38:49;;;;;;;2.20;1.40;;;20.50;94.70;;;21.06;46.21;101945.34;4896051;28;96866;-56
2022/07/18 02:41:15;;;;;;;2.83;1.60;;;20.40;94.40;;;21.02;46.30;101950.97;4888619;28;98540;-50
2022/07/18 02:43:40;;;;;;;3.87;1.60;;;20.40;94.50;;;21.03;47.96;101941.97;4894951;28;102382;-51
2022/07/18 02:46:06;;;;;;;6.30;1.83;;;20.40;94.90;;;20.99;45.49;101946.66;4891082;28;97514;-53
2022/07/18 02:48:32;;;;;;;4.67;1.77;;;20.40;94.40;;;20.99;46.49;101951.16;4900444;28;97205;-51
2022/07/18 02:50:58;;;;;;;4.23;1.80;;;20.30;94.40;;;20.98;47.76;101944.06;4887044;28;98308;-51
2022/07/18 02:53:24;;;;;;;4.10;1.50;;;20.30;94.80;;;20.97;46.24;101953.91;4889067;28;106666;-54
2022/07/18 02:55:50;;;;;;;4.03;1.50;;;20.30;94.60;;;20.96;45.94;101948.66;4893858;28;97407;-51
2022/07/18 02:58:17;;;;;;;5.43;1.80;;;20.30;94.40;;;20.97;47.27;101945.00;4909005;28;97070;-53
2022/07/18 03:00:43;;;;;;;5.13;1.60;;;20.30;95.00;;;20.87;45.86;101947.38;4881567;28;97567;-48
2022/07/18 03:03:09;;;;;;;3.77;1.60;;;20.30;95.00;;;20.86;47.46;101956.38;4893624;28;97375;-48
2022/07/18 03:05:35;;;;;;;2.73;1.57;;;20.20;94.80;;;20.87;46.97;101950.06;4870800;28;97230;-52
2022/07/18 03:08:01;;;;;;;2.20;1.33;;;20.20;95.10;;;20.83;46.07;101944.94;4892365;28;97128;-53
2022/07/18 03:10:26;;;;;;;2.30;1.37;;;20.20;95.00;;;20.79;46.14;101955.00;4887726;28;97773;-48
2022/07/18 03:12:52;;;;;;;4.07;1.60;;;20.10;95.20;;;20.73;46.95;101950.00;4894341;28;106915;-49
2022/07/18 03:15:18;;;;;;;4.27;1.83;;;20.10;95.30;;;20.71;47.21;101944.72;4890412;28;96726;-53
2022/07/18 03:17:44;;;;;;;2.73;1.70;;;20.10;95.10;;;20.72;47.29;101940.22;4889898;28;112189;-53
2022/07/18 03:20:11;;;;;;;4.73;2.10;;;20.10;95.20;;;20.68;46.14;101946.69;4888102;28;98549;-49
2022/07/18 03:22:36;;;;;;;4.37;1.70;;;20.00;95.10;;;20.58;46.46;101951.75;4895130;28;98285;-55
2022/07/18 03:25:03;;;;;;;4.47;2.00;;;19.90;95.20;;;20.52;45.87;101945.84;4894226;28;97087;-53
2022/07/18 03:27:29;;;;;;;5.63;1.40;;;19.80;95.00;;;20.45;46.09;101956.94;4883433;28;97464;-51
2022/07/18 03:29:55;;;;;;;3.53;1.70;;;19.80;95.50;;;20.41;46.83;101950.03;4901181;28;97591;-49
2022/07/18 03:32:21;;;;;;;3.67;1.80;;;19.70;95.50;;;20.45;46.47;101948.03;4896000;28;96927;-53
2022/07/18 03:34:47;;;;;;;3.70;1.40;;;19.80;95.50;;;20.34;45.99;101943.25;4895987;28;97034;-51
2022/07/18 03:37:13;;;;;;;3.37;1.70;;;19.70;95.20;;;20.30;46.49;101943.50;4900457;28;96727;-51
2022/07/18 03:39:38;;;;;;;3.00;1.80;;;19.60;95.30;;;20.29;47.81;101934.59;4915300;28;97583;-48
2022/07/18 03:42:04;;;;;;;4.40;1.80;;;19.60;95.80;;;20.32;48.32;101934.44;4903041;28;103053;-54
2022/07/18 03:44:30;;;;;;;7.17;2.50;;;19.60;96.10;;;20.30;47.42;101936.34;4893470;28;97425;-51
2022/07/18 03:46:56;;;;;;;4.50;2.00;;;19.60;95.80;;;20.31;47.20;101942.56;4902686;28;98792;-56
2022/07/18 03:49:22;;;;;;;5.87;1.93;;;19.60;95.30;;;20.33;48.02;101938.84;4895180;28;97671;-56
2022/07/18 03:51:47;;;;;;;3.13;1.67;;;19.70;95.50;;;20.35;48.64;101936.94;4887457;28;97165;-52
2022/07/18 03:54:13;;;;;;;3.03;1.90;;;19.70;96.00;;;20.36;48.75;101930.63;4897690;28;96743;-51
2022/07/18 03:56:39;;;;;;;3.27;1.53;;;19.70;96.00;;;20.37;49.22;101926.97;4894118;28;96907;-56
2022/07/18 03:59:06;;;;;;;2.50;1.60;;;19.70;95.90;;;20.38;48.19;101934.06;4887256;28;97673;-55
2022/07/18 04:01:32;;;;;;;4.63;1.60;;;19.70;95.90;;;20.41;47.06;101933.94;4889990;28;97283;-52
2022/07/18 04:03:58;;;;;;;3.47;2.33;;;19.70;95.60;;;20.38;46.15;101933.19;4889847;28;98270;-54
2022/07/18 04:06:24;;;;;;;3.67;1.90;;;19.70;95.40;;;20.36;46.57;101941.34;4886547;28;98874;-54
2022/07/18 04:08:49;;;;;;;5.93;1.83;;;19.70;95.20;;;20.31;46.38;101943.41;4882025;28;98342;-53
2022/07/18 04:11:15;;;;;;;5.50;1.97;;;19.60;95.60;;;20.30;47.65;101946.19;4891649;28;97458;-52
2022/07/18 04:13:41;;;;;;;3.20;1.60;;;19.60;95.60;;;20.35;49.00;101947.66;4890771;28;97289;-50
2022/07/18 04:16:07;;;;;;;5.87;1.90;;;19.70;96.00;;;20.35;48.13;101955.69;4896611;28;97541;-52
2022/07/18 04:18:33;;;;;;;2.93;1.70;;;19.70;96.00;;;20.36;48.10;101952.06;4891935;28;97625;-53
2022/07/18 04:20:59;;;;;;;8.70;1.67;;;19.70;96.10;;;20.37;48.68;101951.09;4897130;28;97151;-49
2022/07/18 04:23:24;;;;;;;4.13;1.83;;;19.70;96.40;;;20.39;48.92;101951.88;4898045;28;97125;-50
2022/07/18 04:25:50;;;;;;;4.30;1.33;;;19.70;96.50;;;20.41;49.66;101944.66;4899930;28;97001;-52
2022/07/18 04:28:16;;;;;;;2.97;1.33;;;19.70;96.70;;;20.41;49.36;101933.94;4894326;28;97604;-50
2022/07/18 04:30:43;;;;;;;5.03;1.93;;;19.70;96.60;;;20.45;49.69;101940.84;4897992;28;99049;-52
2022/07/18 04:33:10;;;;;;;4.27;1.80;;;19.70;96.80;;;20.48;49.18;101948.72;4884748;28;96940;-51
2022/07/18 04:35:37;;;;;;;4.80;1.70;;;19.80;96.70;;;20.47;48.03;101935.41;4896395;28;97337;-53
2022/07/18 04:38:04;;;;;;;4.53;2.27;;;19.80;96.40;;;20.48;48.96;101940.69;4892775;28;97420;-52
2022/07/18 04:40:30;;;;;;;8.10;2.30;;;19.80;96.40;;;20.50;49.39;101937.91;4884412;28;97117;-48
2022/07/18 04:42:55;;;;;;;6.50;2.03;;;19.80;96.70;;;20.54;49.53;101927.88;4908302;28;97745;-49
2022/07/18 04:45:23;;;;;;;4.87;2.30;;;19.90;96.70;;;20.61;50.02;101929.25;4894493;28;97642;-55
2022/07/18 04:47:54;;;;;;;5.43;2.00;;;19.90;96.40;;;20.68;49.67;101930.63;4898302;28;97502;-50
2022/07/18 04:50:21;;;;;;;3.00;1.53;;;20.00;96.30;;;20.77;49.84;101924.72;4899174;28;97208;-50
2022/07/18 04:52:49;;;;;;;5.27;2.13;;;20.10;96.30;;;20.86;49.99;101928.69;4884970;28;96770;-52
2022/07/18 04:55:17;;;;;;;4.17;1.83;;;20.20;96.00;;;20.89;49.41;101929.38;4897238;28;97742;-53
2022/07/18 04:57:43;;;;;;;4.57;1.97;;;20.20;95.80;;;20.92;48.56;101923.81;4888492;28;98257;-53
2022/07/18 05:00:14;;;;;;;3.30;1.90;;;20.30;95.80;;;20.98;48.80;101925.31;4895297;28;97011;-54
2022/07/18 05:02:47;;;;;;;3.43;1.60;;;20.40;95.70;;;21.04;49.17;101928.47;4888476;28;97492;-55
2022/07/18 05:05:14;;;;;;;8.10;2.23;;;20.40;95.80;;;21.08;49.03;101930.00;4901494;28;97204;-48
2022/07/18 05:07:42;;;;;;;3.60;1.60;;;20.50;95.80;;;21.13;50.13;101931.56;4892621;28;96753;-52
2022/07/18 05:10:11;;;;;;;5.83;2.47;;;20.50;96.30;;;21.16;47.46;101926.00;4893244;28;96767;-54
2022/07/18 05:12:40;;;;;;;2.63;1.30;;;20.50;95.60;;;21.24;49.87;101924.56;4894505;28;97427;-55
2022/07/18 05:15:09;;;;;;;3.30;1.70;;;20.60;95.60;;;21.30;49.97;101924.25;4910971;28;97301;-52
2022/07/18 05:17:36;;;;;;;1.53;1.37;;;20.70;96.10;;;21.37;49.91;101919.38;4882387;28;96997;-51
2022/07/18 05:20:04;;;;;;;1.20;1.10;;;20.80;96.20;;;21.46;49.96;101916.13;4898686;28;97741;-51
2022/07/18 05:22:29;;;;;;;2.57;1.80;;;20.90;96.80;;;21.53;49.08;101914.78;4890555;28;97460;-53
2022/07/18 05:24:55;;;;;;;2.90;1.60;;;21.00;95.50;;;21.60;48.41;101916.13;4893828;28;97039;-50
2022/07/18 05:27:21;;;;;;;1.80;1.10;;;21.10;94.70;;;21.72;49.19;101913.66;4902018;28;97134;-53
2022/07/18 05:29:47;;;;;;;1.40;1.17;;;21.30;96.60;;;21.85;49.02;101920.00;4896742;28;97031;-56
2022/07/18 05:32:13;;;;;;;1.50;0.93;;;21.50;97.00;;;21.97;49.01;101924.56;4889316;28;97052;-51
2022/07/18 05:34:38;;;;;;;2.13;1.10;;;21.70;97.30;;;22.09;48.50;101922.94;4884561;28;97195;-56
2022/07/18 05:37:04;;;;;;;1.83;1.03;;;21.90;96.90;;;22.18;48.18;101928.59;4890678;28;97343;-54
2022/07/18 05:39:30;;;;;;;1.10;1.00;;;22.00;96.50;;;22.25;48.28;101924.53;4894831;28;101095;-54
2022/07/18 05:41:56;;;;;;;3.13;1.10;;;22.10;96.50;;;22.35;47.65;101923.97;4886852;28;97663;-53
2022/07/18 05:44:22;;;;;;;1.73;0.90;;;22.20;95.40;;;22.43;47.92;101924.34;4879315;28;97408;-53
2022/07/18 05:46:48;;;;;;;1.10;1.00;;;22.30;96.40;;;22.48;47.76;101915.00;4893331;28;97251;-54
2022/07/18 05:49:15;;;;;;;0.90;0.80;;;22.40;96.10;;;22.52;47.49;101916.50;4896581;28;97399;-56
2022/07/18 05:51:41;;;;;;;1.10;1.00;;;22.50;96.10;;;22.57;47.52;101918.91;4893690;28;97582;-54
2022/07/18 05:54:08;;;;;;;1.20;0.90;;;22.50;96.00;;;22.62;47.26;101922.16;4897715;28;97097;-52
2022/07/18 05:56:34;;;;;;;1.10;1.00;;;22.50;95.80;;;22.66;47.15;101920.97;4893466;28;97679;-51
2022/07/18 05:59:00;;;;;;;2.10;1.20;;;22.60;95.80;;;22.68;47.11;101924.41;4888717;28;98562;-50
2022/07/18 06:01:26;;;;;;;0.90;0.80;;;22.60;95.70;;;22.71;46.83;101924.25;4894050;28;97210;-54
2022/07/18 06:03:52;;;;;;;0.80;0.80;;;22.60;96.00;;;22.76;46.97;101908.66;4905269;28;96887;-55
2022/07/18 06:06:18;;;;;;;1.30;1.07;;;22.70;95.60;;;22.77;46.79;101915.75;4905033;28;97015;-48
2022/07/18 06:08:44;;;;;;;1.10;0.93;;;22.70;95.50;;;22.78;46.82;101912.09;4898059;28;96975;-52
2022/07/18 06:11:10;;;;;;;2.00;0.90;;;22.70;95.50;;;22.83;46.71;101914.50;4896947;28;96760;-49
2022/07/18 06:13:39;;;;;;;1.00;0.80;;;22.70;95.50;;;22.81;46.87;101911.00;4905383;28;97048;-56
2022/07/18 06:16:06;;;;;;;1.33;0.90;;;22.80;95.40;;;22.82;46.56;101910.03;4896356;28;97850;-56
2022/07/18 06:18:34;;;;;;;0.70;0.70;;;22.80;95.30;;;22.84;46.75;101898.25;4891076;28;97478;-56
2022/07/18 06:21:02;;;;;;;1.03;0.70;;;22.80;95.20;;;22.87;46.52;101897.19;4891131;28;98938;-52
2022/07/18 06:23:28;;;;;;;1.63;1.00;;;22.80;95.40;;;22.88;46.58;101911.50;4879157;28;96947;-55
2022/07/18 06:25:55;;;;;;;3.60;1.33;;;22.80;95.30;;;22.89;39.45;101900.63;4884626;28;97082;-56
2022/07/18 06:28:21;;;;;;;4.53;1.30;;;22.80;90.60;;;22.88;45.22;101895.38;4887840;28;98000;-52
2022/07/18 06:30:47;;;;;;;2.90;1.00;;;22.80;93.80;;;22.90;46.48;101898.81;4887143;28;97192;-54
2022/07/18 06:33:13;;;;;;;1.10;0.90;;;22.80;95.00;;;22.92;46.49;101896.88;4883411;28;97415;-50
2022/07/18 06:35:40;;;;;;;1.07;0.90;;;22.80;95.20;;;22.91;46.35;101898.72;4872592;28;97914;-52
2022/07/18 06:38:06;;;;;;;1.93;1.10;;;22.80;95.10;;;22.96;46.35;101895.69;4899124;28;97083;-54
2022/07/18 06:40:32;;;;;;;2.47;1.17;;;22.90;94.90;;;22.99;40.77;101892.78;4895663;28;97630;-55
2022/07/18 06:42:58;;;;;;;0.90;0.80;;;22.90;91.00;;;22.99;45.99;101890.09;4882425;28;97331;-51
2022/07/18 06:45:24;;;;;;;1.60;1.00;;;22.90;94.80;;;22.96;46.21;101887.63;4889978;28;108233;-54
2022/07/18 06:47:50;;;;;;;1.17;0.80;;;22.90;94.90;;;22.99;45.43;101898.16;4891908;28;97324;-52
2022/07/18 06:50:16;;;;;;;1.20;1.10;;;22.90;93.90;;;23.01;46.13;101882.81;4884740;28;97153;-55
2022/07/18 06:52:44;;;;;;;1.47;1.10;;;22.90;94.80;;;23.04;40.57;101890.66;4883224;28;97632;-51
2022/07/18 06:55:12;;;;;;;1.20;0.80;;;22.90;91.00;;;23.07;45.68;101890.44;4884269;28;98429;-55
2022/07/18 06:57:39;;;;;;;1.20;1.10;;;23.00;94.40;;;23.06;45.80;101894.09;4903977;28;97687;-53
2022/07/18 07:00:08;;;;;;;1.43;0.80;;;23.00;94.70;;;23.07;45.59;101898.50;4901901;28;98160;-54
2022/07/18 07:02:39;;;;;;;0.90;0.90;;;23.00;93.80;;;23.05;45.94;101892.38;4894772;28;96898;-52
2022/07/18 07:05:06;;;;;;;1.63;1.00;;;23.00;94.70;;;23.07;43.91;101891.31;4894149;28;102195;-52
2022/07/18 07:07:31;;;;;;;1.77;1.20;;;23.00;92.10;;;23.05;40.04;101884.31;4885692;28;97228;-55
2022/07/18 07:09:57;;;;;;;6.87;1.97;;;23.00;90.80;;;23.13;38.44;101890.00;4893431;28;97389;-53
2022/07/18 07:12:23;;;;;;;0.70;0.63;;;23.00;88.10;;;23.07;45.56;101890.44;4896680;28;97367;-52
2022/07/18 07:14:49;;;;;;;0.97;0.70;;;23.00;94.30;;;22.98;46.23;101891.06;4891934;28;97341;-54
2022/07/18 07:17:15;;;;;;;0.77;0.70;;;23.00;94.70;;;22.90;46.56;101888.06;4897029;28;98008;-52
2022/07/18 07:19:41;;;;;;;1.63;0.90;;;22.90;94.80;;;22.89;46.47;101889.03;4896639;28;97449;-56
2022/07/18 07:22:06;;;;;;;27.70;25.37;;;22.90;94.90;;;22.91;41.80;101884.41;4887230;28;97621;-52
2022/07/18 07:24:32;;;;;;;1.30;0.90;;;22.90;91.90;;;22.93;46.52;101893.22;4892715;28;97403;-51
2022/07/18 07:26:58;;;;;;;1.10;0.90;;;22.90;94.80;;;22.93;46.28;101893.22;4895211;28;97072;-56
2022/07/18 07:29:24;;;;;;;1.10;0.67;;;22.90;94.70;;;22.92;46.42;101894.19;4895005;28;96883;-57
2022/07/18 07:31:49;;;;;;;0.77;0.70;;;22.90;94.80;;;22.85;46.50;101888.34;4897215;28;97110;-55
2022/07/18 07:34:15;;;;;;;1.97;1.10;;;22.90;94.90;;;22.95;44.02;101883.22;4895808;28;97006;-54
2022/07/18 07:36:41;;;;;;;1.50;0.73;;;22.90;93.00;;;22.90;46.25;101878.16;4905524;28;107876;-56
2022/07/18 07:39:07;;;;;;;1.20;0.90;;;22.90;94.80;;;22.91;46.31;101874.50;4893461;28;104371;-55
2022/07/18 07:41:33;;;;;;;0.77;0.77;;;22.90;94.80;;;22.90;46.07;101871.91;4900984;28;96855;-52
2022/07/18 07:44:01;;;;;;;1.73;0.87;;;22.90;94.70;;;22.99;45.64;101871.25;4890399;28;98867;-55
2022/07/18 07:46:27;;;;;;;7.10;1.33;;;23.00;94.40;;;23.08;42.70;101865.25;4887343;28;97298;-54
2022/07/18 07:48:52;;;;;;;2.10;1.00;;;23.00;91.60;;;23.03;45.11;101862.88;4889083;28;97191;-59
2022/07/18 07:51:18;;;;;;;1.63;1.03;;;23.00;93.40;;;23.06;44.65;101869.88;4887960;28;97154;-56
2022/07/18 07:53:45;;;;;;;2.33;1.33;;;23.00;93.50;;;23.05;40.23;101870.84;4894693;28;97029;-53
2022/07/18 07:56:11;;;;;;;4.80;1.07;;;23.00;90.90;;;23.05;40.78;101860.94;4893878;28;98374;-56
2022/07/18 07:58:36;;;;;;;3.00;1.10;;;23.00;91.50;;;23.17;44.77;101856.56;4890330;28;97251;-57
2022/07/18 08:01:02;;;;;;;3.37;1.00;;;23.10;93.50;;;23.29;38.63;101863.78;4891066;28;97224;-55
2022/07/18 08:03:29;;;;;;;2.93;1.40;;;23.20;88.40;;;23.36;41.80;101859.66;4903114;28;97236;-53
2022/07/18 08:05:55;;;;;;;2.33;1.30;;;23.30;90.80;;;23.40;41.63;101861.16;4890927;28;98724;-53
2022/07/18 08:08:21;;;;;;;2.00;1.10;;;23.40;89.50;;;23.37;42.17;101864.09;4892392;28;97006;-55
2022/07/18 08:10:47;;;;;;;2.47;1.20;;;23.40;91.80;;;23.52;36.89;101862.13;4893932;28;97740;-51
2022/07/18 08:13:13;;;;;;;2.70;1.20;;;23.50;83.80;;;23.65;39.05;101854.06;4904477;28;98214;-52
2022/07/18 08:15:40;;;;;;;0.90;0.80;;;23.60;84.90;;;23.52;42.34;101854.06;4891505;28;97449;-53
2022/07/18 08:18:06;;;;;;;1.23;0.82;;;23.50;91.40;;;23.35;44.50;101852.56;4894505;28;97018;-57
2022/07/18 08:20:34;;;;;;;1.93;1.17;;;23.40;93.00;;;23.41;38.88;101856.63;4887946;28;97019;-55
2022/07/18 08:23:10;;;;;;;3.03;1.50;;;23.40;87.20;;;23.48;39.55;101857.94;4885961;28;98099;-52
2022/07/18 08:25:40;;;;;;;1.23;0.90;;;23.40;86.60;;;23.31;44.31;101851.06;4888019;28;97192;-55
2022/07/18 08:28:07;;;;;;;4.38;1.05;;;23.30;92.90;;;23.32;44.39;101857.31;4908909;28;96994;-55
2022/07/18 08:30:34;;;;;;;2.27;0.90;;;23.30;92.80;;;23.36;44.34;101856.13;4887591;28;98164;-56
2022/07/18 08:33:01;;;;;;;1.52;0.70;;;23.30;92.90;;;23.14;45.37;101859.44;4895835;28;98032;-55
2022/07/18 08:35:28;;;;;;;1.67;1.17;;;23.20;93.70;;;23.24;45.15;101854.28;4891754;28;98337;-54
2022/07/18 08:37:54;;;;;;;1.00;0.63;;;23.20;93.80;;;23.21;45.46;101852.66;4888558;28;97177;-49
2022/07/18 08:40:20;;;;;;;1.83;0.88;;;23.20;93.90;;;23.12;45.46;101850.59;4886205;28;98350;-51
2022/07/18 08:42:50;;;;;;;1.00;0.90;;;23.10;94.00;;;23.07;45.80;101847.38;4881608;28;99193;-55
2022/07/18 08:45:23;;;;;;;0.90;0.80;;;23.10;94.10;;;23.09;45.85;101850.81;4887602;28;97337;-53
2022/07/18 08:47:49;;;;;;;1.30;1.10;;;23.10;94.20;;;23.02;45.78;101844.16;4885710;28;98676;-54
2022/07/18 08:50:15;;;;;;;1.00;0.90;;;23.10;94.20;;;23.04;45.81;101842.22;4888757;28;98260;-53
2022/07/18 08:52:41;;;;;;;3.87;1.50;;;23.10;94.20;;;23.13;45.05;101846.94;4880080;28;96942;-51
2022/07/18 08:55:08;;;;;;;0.53;0.50;;;23.10;93.30;;;23.07;45.53;101836.63;4886312;28;97569;-50
2022/07/18 08:57:34;;;;;;;5.57;1.60;;;23.10;93.90;;;23.13;40.50;101834.34;4882343;28;97317;-57
2022/07/18 09:00:08;;;;;;;1.17;0.70;;;23.10;90.70;;;23.14;45.09;101828.00;4887091;28;96927;-53
2022/07/18 09:02:34;;;;;;;4.93;1.57;;;23.20;93.60;;;23.26;39.66;101830.81;4885120;28;97475;-54
2022/07/18 09:05:03;;;;;;;1.00;0.90;;;23.20;90.10;;;23.36;44.28;101832.75;4898421;28;98018;-51
2022/07/18 09:07:36;;;;;;;2.83;1.10;;;23.40;92.90;;;23.40;41.93;101834.25;4894999;28;97676;-49
2022/07/18 09:10:05;;;;;;;2.10;0.90;;;23.40;91.80;;;23.44;44.01;101829.53;4899752;28;97099;-51
2022/07/18 09:12:31;;;;;;;1.02;0.68;;;23.50;92.70;;;23.32;44.69;101825.88;4897859;28;97742;-52
2022/07/18 09:15:04;;;;;;;0.73;0.60;;;23.40;93.20;;;23.32;44.72;101820.47;4895333;28;98416;-54
2022/07/18 09:17:34;;;;;;;1.90;1.13;;;23.30;93.40;;;23.32;44.78;101831.25;4875868;28;98573;-54
2022/07/18 09:20:08;;;;;;;1.80;0.90;;;23.30;93.50;;;23.37;44.52;101823.69;4868832;28;97996;-53
2022/07/18 09:22:37;;;;;;;2.00;0.80;;;23.40;92.90;;;23.28;44.43;101818.94;4866875;28;100986;-56
2022/07/18 09:25:20;;;;;;;1.20;0.97;;;23.30;93.10;;;23.26;44.91;101823.59;4869336;28;99361;-52
2022/07/18 09:27:53;;;;;;;1.83;1.25;;;23.30;93.60;;;23.28;45.20;101824.34;4865321;28;97270;-56
2022/07/18 09:30:25;;;;;;;2.77;1.67;;;23.20;93.60;;;23.36;41.22;101830.06;4865282;28;97817;-52
2022/07/18 09:33:03;;;;;;;1.48;0.90;;;23.30;90.70;;;23.27;44.78;101822.63;4867645;28;102136;-54
2022/07/18 09:35:46;;;;;;;3.97;1.20;;;23.30;93.40;;;23.31;44.79;101823.28;4868396;28;99373;-53
2022/07/18 09:38:29;;;;;;;0.87;0.73;;;23.30;93.20;;;23.24;44.03;101828.22;4870952;28;97224;-54
2022/07/18 09:40:57;;;;;;;3.50;1.50;;;23.20;93.70;;;23.26;45.20;101820.91;4869370;28;99195;-54
2022/07/18 09:43:24;;;;;;;0.70;0.70;;;23.30;93.70;;;23.22;45.28;101822.09;4870768;28;97417;-56
2022/07/18 09:45:54;;;;;;;1.08;0.70;;;23.30;93.80;;;23.11;45.54;101824.66;4864292;28;102668;-56
2022/07/18 09:48:25;;;;;;;0.85;0.73;;;23.20;93.90;;;23.04;45.67;101818.00;4863926;28;99435;-55
2022/07/18 09:51:01;;;;;;;0.90;0.80;;;23.10;94.00;;;23.00;45.99;101813.78;4863453;28;99637;-56
2022/07/18 09:53:43;;;;;;;5.33;1.90;;;23.10;94.20;;;23.21;44.73;101823.06;4866730;28;100023;-55
2022/07/18 09:56:22;;;;;;;4.67;1.63;;;23.20;93.20;;;23.27;44.60;101819.94;4867855;28;97652;-57
2022/07/18 09:58:54;;;;;;;3.27;1.40;;;23.20;93.30;;;23.58;43.09;101825.84;4864387;28;98947;-55
2022/07/18 10:01:21;;;;;;;4.77;1.80;;;23.60;92.10;;;23.54;43.71;101824.31;4871083;28;97485;-55
2022/07/18 10:03:48;;;;;;;1.77;1.10;;;23.60;92.60;;;23.54;44.12;101824.31;4866094;28;97389;-54
2022/07/18 10:06:16;;;;;;;0.70;0.70;;;23.60;92.90;;;23.39;44.79;101816.38;4867755;28;97896;-53
2022/07/18 10:08:42;;;;;;;2.13;1.00;;;23.50;93.20;;;23.30;45.39;101817.03;4868429;28;96963;-55
2022/07/18 10:11:09;;;;;;;5.57;1.80;;;23.40;93.50;;;23.28;44.96;101808.19;4862743;28;99386;-54
2022/07/18 10:13:37;;;;;;;6.57;2.38;;;23.30;93.20;;;23.49;44.18;101805.81;4863842;28;98604;-53
2022/07/18 10:16:05;;;;;;;0.93;0.77;;;23.50;92.60;;;23.54;44.12;101803.63;4868877;28;97098;-52
2022/07/18 10:18:33;;;;;;;8.50;1.70;;;23.60;92.90;;;23.50;44.41;101795.91;4864436;28;97464;-53